createdAt,value
2022-08-27T02:33:58.402Z,63.7
2022-08-27T02:49:08.550Z,63.7
2022-08-27T03:04:17.561Z,64.2
2022-08-27T03:19:27.096Z,64.3
2022-08-27T03:34:36.639Z,64.4
2022-08-27T03:49:46.502Z,64.8
2022-08-27T04:04:55.327Z,64.9
2022-08-27T04:20:36.680Z,65.1
2022-08-27T04:35:45.981Z,65.1
2022-08-27T04:50:56.050Z,65.1
2022-08-27T05:06:05.258Z,65.3
2022-08-27T05:21:14.592Z,65.4
2022-08-27T05:36:23.699Z,65.5
2022-08-27T05:51:33.075Z,65.4
2022-08-27T06:06:42.351Z,65.4
2022-08-27T06:22:11.391Z,65.4
2022-08-27T06:37:21.368Z,65.6
2022-08-27T06:52:30.897Z,65.6
2022-08-27T07:07:49.311Z,65.6
2022-08-27T07:22:58.721Z,65.6
2022-08-27T07:38:07.760Z,65.6
2022-08-27T07:53:17.171Z,65.1
2022-08-27T08:08:27.795Z,65.5
2022-08-27T08:23:37.637Z,65.4
2022-08-27T08:38:48.951Z,65.4
2022-08-27T08:53:58.672Z,65
2022-08-27T09:03:47.217Z,66.4
2022-08-27T09:18:53.550Z,65.9
2022-08-27T09:34:03.243Z,65.6
2022-08-27T09:49:13.391Z,65.4
2022-08-27T10:04:24.246Z,65
2022-08-27T10:19:34.197Z,64.5
2022-08-27T10:34:44.334Z,63.9
2022-08-27T10:49:54.768Z,63.5
2022-08-27T11:05:04.328Z,63
2022-08-27T11:20:13.819Z,62.5
2022-08-27T11:35:23.229Z,62
2022-08-27T11:50:32.445Z,61.9
2022-08-27T12:05:42.262Z,61.4
2022-08-27T12:20:51.761Z,61.4
2022-08-27T12:36:01.289Z,62.1
2022-08-27T12:51:10.436Z,62
2022-08-27T13:06:23.087Z,62
2022-08-27T13:21:32.249Z,62.3
2022-08-27T13:36:41.705Z,62.3
2022-08-27T13:51:50.546Z,62.4
2022-08-27T14:06:59.612Z,62.3
2022-08-27T14:22:08.733Z,62.1
2022-08-27T14:37:17.706Z,62
2022-08-27T14:52:26.515Z,61.9
2022-08-27T15:07:35.856Z,61.9
2022-08-27T15:22:45.398Z,61.8
2022-08-27T15:37:54.902Z,61.9
2022-08-27T15:53:03.865Z,61.9
2022-08-27T16:08:14.032Z,61.8
2022-08-27T16:23:23.729Z,61.8
2022-08-27T16:38:33.182Z,61.4
2022-08-27T16:53:42.650Z,60.8
2022-08-27T17:08:52.213Z,61.2
2022-08-27T17:24:01.371Z,61.2
2022-08-27T17:39:10.831Z,61.3
2022-08-27T17:54:19.674Z,61.3
2022-08-27T18:09:28.486Z,61.5
2022-08-27T18:24:37.785Z,61.5
2022-08-27T18:39:46.861Z,61.5
2022-08-27T18:54:59.715Z,61.4
2022-08-27T19:10:13.543Z,61.4
2022-08-27T19:25:23.230Z,61.3
2022-08-27T19:40:32.882Z,61.4
2022-08-27T19:55:42.946Z,61.5
2022-08-27T20:10:52.257Z,61.8
2022-08-27T20:26:02.047Z,62.2
2022-08-27T20:41:10.701Z,62
2022-08-27T20:56:21.215Z,62.1
2022-08-27T21:11:30.751Z,62.2
2022-08-27T21:26:40.297Z,62.3
2022-08-27T21:41:49.753Z,62.4
2022-08-27T21:56:58.848Z,62.6
2022-08-27T22:12:11.175Z,62.8
2022-08-27T22:27:23.549Z,62.7
2022-08-27T22:42:33.911Z,63.2
2022-08-27T22:57:42.771Z,63.5
2022-08-27T23:12:51.658Z,63.7
2022-08-27T23:28:13.734Z,63.6
2022-08-27T23:45:30.824Z,63.7
